createdAt,value
2018-09-04T00:00:39.449Z,98998.00
2018-09-04T00:03:10.970Z,99006.00
2018-09-04T00:05:41.878Z,99007.00
2018-09-04T00:08:11.935Z,99016.00
2018-09-04T00:10:43.576Z,99021.00
2018-09-04T00:13:14.295Z,99030.00
2018-09-04T00:15:45.159Z,99036.00
2018-09-04T00:18:15.791Z,99040.00
2018-09-04T00:20:47.313Z,99036.00
2018-09-04T00:23:18.734Z,99037.00
2018-09-04T00:25:50.063Z,99046.00
2018-09-04T00:28:21.046Z,99056.00
2018-09-04T00:30:52.270Z,99056.00
2018-09-04T00:33:23.372Z,99060.00
2018-09-04T00:35:55.055Z,99057.00
2018-09-04T00:38:26.035Z,99062.00
2018-09-04T00:40:57.610Z,99066.00
2018-09-04T00:43:28.145Z,99069.00
2018-09-04T00:45:59.445Z,99070.00
2018-09-04T00:48:31.202Z,99068.00
2018-09-04T00:51:02.686Z,99061.00
2018-09-04T00:53:34.351Z,99061.00
2018-09-04T00:56:06.228Z,99063.00
2018-09-04T00:58:37.294Z,99061.00
2018-09-04T01:01:09.353Z,99061.00
2018-09-04T01:03:41.192Z,99063.00
2018-09-04T01:06:12.333Z,99063.00
2018-09-04T01:08:44.052Z,99060.00
2018-09-04T01:11:14.986Z,99064.00
2018-09-04T01:13:47.360Z,99069.00
2018-09-04T01:16:18.759Z,99065.00
2018-09-04T01:18:50.721Z,99061.00
2018-09-04T01:21:21.472Z,99057.00
2018-09-04T01:23:53.309Z,99060.00
2018-09-04T01:26:24.347Z,99065.00
2018-09-04T01:28:56.182Z,99065.00
2018-09-04T01:31:27.826Z,99072.00
2018-09-04T01:33:59.138Z,99078.00
2018-09-04T01:36:30.547Z,99087.00
2018-09-04T01:39:02.193Z,99085.00
2018-09-04T01:41:33.192Z,99080.00
2018-09-04T01:44:04.132Z,99081.00
2018-09-04T01:46:35.653Z,99079.00
2018-09-04T01:49:07.444Z,99080.00
2018-09-04T01:51:38.270Z,99081.00
2018-09-04T01:54:09.706Z,99079.00
2018-09-04T01:56:41.457Z,99078.00
2018-09-04T01:59:12.774Z,99077.00
2018-09-04T02:01:44.118Z,99076.00
2018-09-04T02:04:15.908Z,99086.00
2018-09-04T02:06:47.526Z,99086.00
2018-09-04T02:09:19.313Z,99083.00
2018-09-04T02:11:50.591Z,99080.00
2018-09-04T02:14:21.721Z,99076.00
2018-09-04T02:16:53.262Z,99078.00
2018-09-04T02:19:24.585Z,99081.00
2018-09-04T02:21:56.085Z,99077.00
2018-09-04T02:24:27.158Z,99073.00
2018-09-04T02:26:58.688Z,99072.00
2018-09-04T02:29:29.889Z,99078.00
2018-09-04T02:32:01.515Z,99082.00
2018-09-04T02:34:33.055Z,99077.00
2018-09-04T02:37:04.408Z,99077.00
2018-09-04T02:39:36.250Z,99084.00
2018-09-04T02:42:08.061Z,99087.00
2018-09-04T02:44:39.557Z,99085.00
2018-09-04T02:47:11.757Z,99082.00
2018-09-04T02:49:43.837Z,99081.00
2018-09-04T02:52:15.623Z,99085.00
2018-09-04T02:54:47.069Z,99094.00
2018-09-04T02:57:18.260Z,99097.00
2018-09-04T02:59:50.022Z,99098.00
2018-09-04T03:02:21.699Z,99090.00
2018-09-04T03:04:53.290Z,99095.00
2018-09-04T03:07:25.067Z,99095.00
2018-09-04T03:09:55.899Z,99091.00
2018-09-04T03:12:26.932Z,99090.00
2018-09-04T03:14:57.865Z,99100.00
2018-09-04T03:17:29.265Z,99092.00
2018-09-04T03:20:00.378Z,99099.00
2018-09-04T03:22:31.431Z,99094.00
2018-09-04T03:25:02.777Z,99091.00
2018-09-04T03:27:33.932Z,99091.00
2018-09-04T03:30:04.952Z,99090.00
2018-09-04T03:32:36.844Z,99097.00
2018-09-04T03:35:08.216Z,99099.00
2018-09-04T03:37:40.791Z,99090.00
2018-09-04T03:40:12.533Z,99087.00
2018-09-04T03:42:44.346Z,99089.00
2018-09-04T03:45:14.384Z,99086.00
2018-09-04T03:47:44.450Z,99090.00
2018-09-04T03:50:14.769Z,99092.00
2018-09-04T03:52:45.037Z,99096.00
2018-09-04T03:55:15.305Z,99098.00
2018-09-04T03:57:45.838Z,99105.00
2018-09-04T04:00:16.026Z,99108.00
2018-09-04T04:02:46.327Z,99108.00
2018-09-04T04:05:16.580Z,99105.00
2018-09-04T04:07:46.650Z,99105.00
2018-09-04T04:10:16.672Z,99100.00
2018-09-04T04:12:47.117Z,99100.00
2018-09-04T04:15:17.169Z,99099.00
2018-09-04T04:17:47.324Z,99094.00
2018-09-04T04:20:17.656Z,99094.00
2018-09-04T04:22:48.145Z,99091.00
2018-09-04T04:25:18.449Z,99091.00
2018-09-04T04:27:48.547Z,99092.00
2018-09-04T04:30:18.681Z,99097.00
2018-09-04T04:32:48.940Z,99102.00
2018-09-04T04:35:19.168Z,99094.00
2018-09-04T04:37:49.418Z,99093.00
2018-09-04T04:40:19.511Z,99097.00
2018-09-04T04:42:49.737Z,99096.00
2018-09-04T04:45:19.958Z,99088.00
2018-09-04T04:47:50.613Z,99091.00
2018-09-04T04:50:20.757Z,99100.00
2018-09-04T04:52:51.072Z,99103.00
2018-09-04T04:55:21.224Z,99105.00
2018-09-04T04:57:51.703Z,99099.00
2018-09-04T05:00:22.069Z,99102.00
2018-09-04T05:02:52.405Z,99104.00
2018-09-04T05:05:22.618Z,99105.00
2018-09-04T05:07:53.181Z,99101.00
2018-09-04T05:10:23.508Z,99096.00
2018-09-04T05:12:54.032Z,99100.00
2018-09-04T05:15:24.174Z,99104.00
2018-09-04T05:17:54.640Z,99099.00
2018-09-04T05:20:26.584Z,99094.00
2018-09-04T05:22:57.034Z,99091.00
2018-09-04T05:25:27.278Z,99088.00
2018-09-04T05:27:57.501Z,99092.00
2018-09-04T05:30:27.912Z,99089.00
2018-09-04T05:34:05.348Z,99095.00
2018-09-04T05:36:35.624Z,99094.00
2018-09-04T05:39:08.537Z,99096.00
2018-09-04T05:41:38.946Z,99088.00
2018-09-04T05:44:09.503Z,99090.00
2018-09-04T05:46:46.658Z,99077.00
2018-09-04T05:49:19.031Z,99078.00
2018-09-04T05:51:49.618Z,99074.00
2018-09-04T05:54:20.152Z,99065.00
2018-09-04T05:56:50.533Z,99062.00
2018-09-04T05:59:21.933Z,99060.00
2018-09-04T06:01:52.436Z,99053.00
2018-09-04T06:04:23.106Z,99044.00
2018-09-04T06:06:53.254Z,99046.00
2018-09-04T06:09:24.660Z,99045.00
2018-09-04T06:11:55.150Z,99046.00
2018-09-04T06:14:25.273Z,99047.00
2018-09-04T06:16:55.576Z,99038.00
2018-09-04T06:19:26.945Z,99036.00
2018-09-04T06:21:57.101Z,99037.00
2018-09-04T06:24:27.341Z,99040.00
2018-09-04T06:26:57.693Z,99038.00
2018-09-04T06:29:27.839Z,99041.00
2018-09-04T06:31:57.881Z,99041.00
2018-09-04T06:34:28.214Z,99044.00
2018-09-04T06:37:01.330Z,99045.00
2018-09-04T06:39:31.752Z,99047.00
2018-09-04T06:42:02.015Z,99045.00
2018-09-04T06:44:32.169Z,99043.00
2018-09-04T06:47:02.322Z,99052.00
2018-09-04T06:49:32.850Z,99050.00
2018-09-04T06:52:03.167Z,99048.00
2018-09-04T06:54:33.388Z,99041.00
2018-09-04T06:57:03.676Z,99035.00
2018-09-04T06:59:33.937Z,99030.00
2018-09-04T07:02:04.249Z,99020.00
2018-09-04T07:04:34.610Z,99017.00
2018-09-04T07:07:04.891Z,99021.00
2018-09-04T07:09:35.296Z,99025.00
2018-09-04T07:12:05.520Z,99016.00
2018-09-04T07:14:35.727Z,99016.00
2018-09-04T07:17:05.966Z,99016.00
2018-09-04T07:19:36.162Z,99016.00
2018-09-04T07:22:06.243Z,99023.00
2018-09-04T07:24:36.415Z,99022.00
2018-09-04T07:27:06.336Z,99021.00
2018-09-04T07:29:37.659Z,99021.00
2018-09-04T07:32:07.916Z,99023.00
2018-09-04T07:34:38.393Z,99021.00
2018-09-04T07:37:08.693Z,99023.00
2018-09-04T07:39:39.048Z,99023.00
2018-09-04T07:42:09.151Z,99016.00
2018-09-04T07:44:39.414Z,99008.00
2018-09-04T07:47:09.548Z,99009.00
2018-09-04T07:49:39.921Z,99006.00
2018-09-04T07:52:10.040Z,98998.00
2018-09-04T07:54:40.376Z,98996.00
2018-09-04T07:57:10.679Z,98990.00
2018-09-04T07:59:40.879Z,98993.00
2018-09-04T08:02:11.152Z,98990.00
2018-09-04T08:04:41.492Z,98992.00
2018-09-04T08:07:11.762Z,98995.00
2018-09-04T08:09:42.098Z,98995.00
2018-09-04T08:12:12.341Z,98990.00
2018-09-04T08:14:42.734Z,98988.00
2018-09-04T08:17:13.000Z,98987.00
2018-09-04T08:19:43.195Z,98990.00
2018-09-04T08:22:13.457Z,98989.00
2018-09-04T08:24:43.637Z,98994.00
2018-09-04T08:27:13.733Z,98987.00
2018-09-04T08:29:44.165Z,98994.00
2018-09-04T08:32:14.444Z,98998.00
2018-09-04T08:34:44.763Z,98989.00
2018-09-04T08:37:15.152Z,98983.00
2018-09-04T08:39:45.539Z,98976.00
2018-09-04T08:42:15.687Z,98969.00
2018-09-04T08:44:45.990Z,98972.00
2018-09-04T08:47:16.981Z,98977.00
2018-09-04T08:49:48.028Z,98975.00
2018-09-04T08:52:19.776Z,98972.00
2018-09-04T08:54:50.468Z,98970.00
2018-09-04T08:57:20.779Z,98967.00
2018-09-04T08:59:51.069Z,98957.00
2018-09-04T09:02:21.550Z,98947.00
2018-09-04T09:04:51.676Z,98938.00
2018-09-04T09:07:22.121Z,98932.00
2018-09-04T09:09:53.018Z,98933.00
2018-09-04T09:12:23.616Z,98930.00
2018-09-04T09:14:54.116Z,98924.00
2018-09-04T09:17:24.679Z,98933.00
2018-09-04T09:19:55.117Z,98929.00
2018-09-04T09:22:25.503Z,98926.00
2018-09-04T09:24:55.764Z,98919.00
2018-09-04T09:27:25.874Z,98922.00
2018-09-04T09:29:56.194Z,98915.00
2018-09-04T09:32:26.582Z,98908.00
2018-09-04T09:34:56.794Z,98906.00
2018-09-04T09:37:27.166Z,98901.00
2018-09-04T09:39:57.538Z,98899.00
2018-09-04T09:42:27.934Z,98892.00
2018-09-04T09:44:57.974Z,98886.00
2018-09-04T09:47:28.044Z,98888.00
2018-09-04T09:49:58.522Z,98888.00
2018-09-04T09:52:28.978Z,98880.00
2018-09-04T09:54:59.492Z,98876.00
2018-09-04T09:57:30.054Z,98878.00
2018-09-04T10:00:00.433Z,98882.00
2018-09-04T10:02:35.555Z,98878.00
2018-09-04T10:05:05.838Z,98884.00
2018-09-04T10:07:36.104Z,98881.00
2018-09-04T10:10:06.612Z,98879.00
2018-09-04T10:12:37.082Z,98881.00
2018-09-04T10:15:08.828Z,98877.00
2018-09-04T10:17:39.452Z,98876.00
2018-09-04T10:20:10.080Z,98871.00
2018-09-04T10:22:40.579Z,98869.00
2018-09-04T10:25:10.935Z,98869.00
2018-09-04T10:27:41.132Z,98864.00
2018-09-04T10:30:15.600Z,98854.00
2018-09-04T10:32:51.447Z,98859.00
2018-09-04T10:35:22.925Z,98866.00
2018-09-04T10:37:53.307Z,98860.00
2018-09-04T10:40:29.007Z,98856.00
2018-09-04T10:42:59.537Z,98852.00
2018-09-04T10:45:34.838Z,98848.00
2018-09-04T10:48:05.128Z,98856.00
2018-09-04T10:50:35.427Z,98851.00
2018-09-04T10:53:05.598Z,98849.00
2018-09-04T10:55:35.981Z,98847.00
2018-09-04T10:58:06.719Z,98850.00
2018-09-04T11:00:36.816Z,98856.00
2018-09-04T11:03:07.036Z,98852.00
2018-09-04T11:05:37.354Z,98856.00
2018-09-04T11:08:07.527Z,98856.00
2018-09-04T11:10:37.903Z,98853.00
2018-09-04T11:13:08.885Z,98848.00
2018-09-04T11:15:39.019Z,98847.00
2018-09-04T11:18:09.405Z,98845.00
2018-09-04T11:20:40.054Z,98845.00
2018-09-04T11:23:10.344Z,98839.00
2018-09-04T11:25:40.532Z,98837.00
2018-09-04T11:28:10.638Z,98831.00
2018-09-04T11:30:41.040Z,98830.00
2018-09-04T11:33:11.429Z,98820.00
2018-09-04T11:35:41.803Z,98824.00
2018-09-04T11:38:11.998Z,98824.00
2018-09-04T11:40:42.423Z,98819.00
2018-09-04T11:43:12.762Z,98818.00
2018-09-04T11:45:43.004Z,98812.00
2018-09-04T11:48:16.335Z,98805.00
2018-09-04T11:50:46.843Z,98802.00
2018-09-04T11:53:17.062Z,98805.00
2018-09-04T11:55:47.678Z,98802.00
2018-09-04T11:58:17.836Z,98796.00
2018-09-04T12:00:49.200Z,98789.00
2018-09-04T12:03:19.510Z,98780.00
2018-09-04T12:05:49.837Z,98761.00
2018-09-04T12:08:19.857Z,98761.00
2018-09-04T12:10:50.052Z,98762.00
2018-09-04T12:13:25.263Z,98761.00
2018-09-04T12:15:55.481Z,98755.00
2018-09-04T12:18:25.662Z,98757.00
2018-09-04T12:20:58.402Z,98755.00
2018-09-04T12:23:28.789Z,98758.00
2018-09-04T12:26:00.238Z,98751.00
2018-09-04T12:28:30.353Z,98751.00
2018-09-04T12:31:01.145Z,98753.00
2018-09-04T12:33:31.647Z,98753.00
2018-09-04T12:36:02.014Z,98757.00
2018-09-04T12:38:36.356Z,98755.00
2018-09-04T12:41:08.009Z,98756.00
2018-09-04T12:43:38.747Z,98745.00
2018-09-04T12:46:08.952Z,98738.00
2018-09-04T12:48:39.373Z,98743.00
2018-09-04T12:51:09.525Z,98742.00
2018-09-04T12:53:39.805Z,98738.00
2018-09-04T12:56:10.198Z,98743.00
2018-09-04T12:58:40.545Z,98741.00
2018-09-04T13:01:11.123Z,98742.00
2018-09-04T13:03:41.531Z,98735.00
2018-09-04T13:06:11.676Z,98739.00
2018-09-04T13:08:41.972Z,98744.00
2018-09-04T13:11:12.353Z,98745.00
2018-09-04T13:13:42.698Z,98744.00
2018-09-04T13:16:13.119Z,98746.00
2018-09-04T13:18:43.651Z,98747.00
2018-09-04T13:21:14.078Z,98744.00
2018-09-04T13:23:44.333Z,98741.00
2018-09-04T13:26:14.317Z,98740.00
2018-09-04T13:28:44.524Z,98742.00
2018-09-04T13:31:14.914Z,98746.00
2018-09-04T13:33:45.283Z,98742.00
2018-09-04T13:36:15.546Z,98733.00
2018-09-04T13:38:45.878Z,98744.00
2018-09-04T13:41:16.152Z,98750.00
2018-09-04T13:43:46.495Z,98751.00
2018-09-04T13:46:16.711Z,98747.00
2018-09-04T13:48:46.997Z,98741.00
2018-09-04T13:51:17.386Z,98742.00
2018-09-04T13:53:47.764Z,98736.00
2018-09-04T13:56:18.015Z,98738.00
2018-09-04T13:58:48.246Z,98738.00
2018-09-04T14:01:18.617Z,98738.00
2018-09-04T14:03:48.977Z,98728.00
2018-09-04T14:06:19.206Z,98729.00
2018-09-04T14:08:49.298Z,98722.00
2018-09-04T14:11:19.924Z,98717.00
2018-09-04T14:13:50.036Z,98709.00
2018-09-04T14:16:23.550Z,98709.00
2018-09-04T14:18:53.682Z,98713.00
2018-09-04T14:21:23.971Z,98721.00
2018-09-04T14:23:54.245Z,98720.00
2018-09-04T14:26:24.152Z,98724.00
2018-09-04T14:29:07.051Z,98726.00
2018-09-04T14:31:24.655Z,98729.00
2018-09-04T14:33:55.363Z,98735.00
2018-09-04T14:36:25.571Z,98736.00
2018-09-04T14:38:55.588Z,98743.00
2018-09-04T14:41:25.876Z,98744.00
2018-09-04T14:43:56.162Z,98742.00
2018-09-04T14:46:26.444Z,98747.00
2018-09-04T14:48:56.702Z,98739.00
2018-09-04T14:51:26.942Z,98740.00
2018-09-04T14:53:57.203Z,98738.00
2018-09-04T14:56:27.599Z,98744.00
2018-09-04T14:58:58.362Z,98745.00
2018-09-04T15:01:28.792Z,98756.00
2018-09-04T15:03:59.987Z,98760.00
2018-09-04T15:06:30.275Z,98758.00
2018-09-04T15:09:00.410Z,98762.00
2018-09-04T15:11:30.841Z,98756.00
2018-09-04T15:14:01.219Z,98750.00
2018-09-04T15:16:31.965Z,98754.00
2018-09-04T15:19:02.583Z,98760.00
2018-09-04T15:21:32.945Z,98761.00
2018-09-04T15:24:03.595Z,98756.00
2018-09-04T15:26:33.908Z,98765.00
2018-09-04T15:29:04.400Z,98766.00
2018-09-04T15:31:34.828Z,98763.00
2018-09-04T15:34:05.393Z,98766.00
2018-09-04T15:36:35.644Z,98768.00
2018-09-04T15:39:06.643Z,98758.00
2018-09-04T15:41:37.237Z,98759.00
2018-09-04T15:44:07.561Z,98758.00
2018-09-04T15:46:37.736Z,98763.00
2018-09-04T15:49:12.995Z,98766.00
2018-09-04T15:51:43.148Z,98773.00
2018-09-04T15:54:13.230Z,98782.00
2018-09-04T15:56:43.540Z,98791.00
2018-09-04T15:59:13.854Z,98797.00
2018-09-04T16:01:44.177Z,98800.00
2018-09-04T16:04:14.382Z,98797.00
2018-09-04T16:06:44.550Z,98800.00
2018-09-04T16:09:14.610Z,98807.00
2018-09-04T16:11:44.614Z,98809.00
2018-09-04T16:14:14.764Z,98817.00
2018-09-04T16:16:44.800Z,98822.00
2018-09-04T16:19:15.044Z,98831.00
2018-09-04T16:21:45.453Z,98835.00
2018-09-04T16:24:15.880Z,98831.00
2018-09-04T16:26:45.994Z,98829.00
2018-09-04T16:29:16.134Z,98832.00
2018-09-04T16:31:46.423Z,98827.00
2018-09-04T16:34:16.740Z,98824.00
2018-09-04T16:36:46.844Z,98833.00
2018-09-04T16:39:16.951Z,98830.00
2018-09-04T16:41:47.235Z,98828.00
2018-09-04T16:44:17.335Z,98826.00
2018-09-04T16:46:47.615Z,98824.00
2018-09-04T16:49:17.956Z,98829.00
2018-09-04T16:51:48.319Z,98823.00
2018-09-04T16:54:18.493Z,98818.00
2018-09-04T16:56:48.854Z,98819.00
2018-09-04T16:59:19.025Z,98818.00
2018-09-04T17:01:49.034Z,98819.00
2018-09-04T17:04:19.288Z,98819.00
2018-09-04T17:06:49.486Z,98817.00
2018-09-04T17:09:19.721Z,98813.00
2018-09-04T17:11:49.936Z,98812.00
2018-09-04T17:14:20.171Z,98814.00
2018-09-04T17:16:50.264Z,98809.00
2018-09-04T17:19:20.695Z,98814.00
2018-09-04T17:21:51.181Z,98821.00
2018-09-04T17:24:21.452Z,98818.00
2018-09-04T17:26:51.588Z,98823.00
2018-09-04T17:29:21.872Z,98835.00
2018-09-04T17:31:52.289Z,98843.00
2018-09-04T17:34:22.355Z,98855.00
2018-09-04T17:36:52.943Z,98854.00
2018-09-04T17:39:23.338Z,98859.00
2018-09-04T17:41:54.581Z,98859.00
2018-09-04T17:44:24.784Z,98866.00
2018-09-04T17:46:55.891Z,98869.00
2018-09-04T17:49:26.026Z,98871.00
2018-09-04T17:51:56.522Z,98868.00
2018-09-04T17:54:26.710Z,98869.00
2018-09-04T17:56:57.034Z,98867.00
2018-09-04T17:59:27.339Z,98867.00
2018-09-04T18:01:57.996Z,98861.00
2018-09-04T18:04:28.124Z,98860.00
2018-09-04T18:06:58.399Z,98862.00
2018-09-04T18:09:28.688Z,98860.00
2018-09-04T18:11:59.272Z,98857.00
2018-09-04T18:14:30.635Z,98855.00
2018-09-04T18:17:01.048Z,98861.00
2018-09-04T18:19:31.579Z,98860.00
2018-09-04T18:22:02.152Z,98863.00
2018-09-04T18:24:32.715Z,98871.00
2018-09-04T18:27:02.880Z,98873.00
2018-09-04T18:29:33.138Z,98882.00
2018-09-04T18:32:03.557Z,98888.00
2018-09-04T18:34:33.855Z,98896.00
2018-09-04T18:37:04.027Z,98896.00
2018-09-04T18:39:34.369Z,98902.00
2018-09-04T18:42:05.792Z,98902.00
2018-09-04T18:44:36.316Z,98906.00
2018-09-04T18:47:06.628Z,98914.00
2018-09-04T18:49:36.630Z,98922.00
2018-09-04T18:52:07.068Z,98930.00
2018-09-04T18:54:37.544Z,98935.00
2018-09-04T18:57:07.941Z,98943.00
2018-09-04T18:59:38.061Z,98944.00
2018-09-04T19:02:08.343Z,98947.00
2018-09-04T19:04:38.493Z,98962.00
2018-09-04T19:07:08.887Z,98969.00
2018-09-04T19:09:39.094Z,98963.00
2018-09-04T19:12:09.546Z,98960.00
2018-09-04T19:14:39.926Z,98960.00
2018-09-04T19:17:10.386Z,98962.00
2018-09-04T19:19:40.664Z,98963.00
2018-09-04T19:22:11.109Z,98956.00
2018-09-04T19:24:41.353Z,98952.00
2018-09-04T19:27:11.478Z,98949.00
2018-09-04T19:29:41.765Z,98951.00
2018-09-04T19:32:12.182Z,98947.00
2018-09-04T19:34:42.463Z,98941.00
2018-09-04T19:37:12.527Z,98938.00
2018-09-04T19:39:43.029Z,98938.00
2018-09-04T19:42:13.421Z,98933.00
2018-09-04T19:44:43.463Z,98930.00
2018-09-04T19:47:13.753Z,98929.00
2018-09-04T19:49:44.108Z,98931.00
2018-09-04T19:52:14.548Z,98941.00
2018-09-04T19:54:45.161Z,98935.00
2018-09-04T19:57:16.791Z,98944.00
2018-09-04T19:59:47.149Z,98944.00
2018-09-04T20:02:17.650Z,98950.00
2018-09-04T20:04:47.778Z,98953.00
2018-09-04T20:07:18.501Z,98949.00
2018-09-04T20:09:49.094Z,98952.00
2018-09-04T20:12:19.484Z,98958.00
2018-09-04T20:14:49.876Z,98963.00
2018-09-04T20:17:20.164Z,98968.00
2018-09-04T20:19:51.485Z,98968.00
2018-09-04T20:22:22.045Z,98968.00
2018-09-04T20:24:52.446Z,98971.00
2018-09-04T20:27:22.759Z,98972.00
2018-09-04T20:29:53.148Z,98976.00
2018-09-04T20:32:23.561Z,98968.00
2018-09-04T20:34:54.088Z,98965.00
2018-09-04T20:37:24.424Z,98969.00
2018-09-04T20:39:54.964Z,98974.00
2018-09-04T20:42:25.055Z,98977.00
2018-09-04T20:44:55.129Z,98978.00
2018-09-04T20:47:25.360Z,98970.00
2018-09-04T20:49:55.407Z,98971.00
2018-09-04T20:52:25.991Z,98959.00
2018-09-04T20:54:57.093Z,98952.00
2018-09-04T20:57:28.749Z,98954.00
2018-09-04T21:00:11.382Z,98949.00
2018-09-04T21:02:52.178Z,98953.00
2018-09-04T21:05:33.024Z,98952.00
2018-09-04T21:08:16.762Z,98957.00
2018-09-04T21:10:48.821Z,98959.00
2018-09-04T21:13:18.986Z,98952.00
2018-09-04T21:15:49.400Z,98947.00
2018-09-04T21:18:19.464Z,98952.00
2018-09-04T21:20:51.260Z,98949.00
2018-09-04T21:23:24.020Z,98954.00
2018-09-04T21:25:55.735Z,98953.00
2018-09-04T21:28:26.436Z,98962.00
2018-09-04T21:30:57.174Z,98966.00
2018-09-04T21:33:27.951Z,98969.00
2018-09-04T21:35:59.701Z,98970.00
2018-09-04T21:38:29.956Z,98966.00
2018-09-04T21:41:00.750Z,98968.00
2018-09-04T21:43:31.028Z,98965.00
2018-09-04T21:46:00.888Z,98964.00
2018-09-04T21:48:30.845Z,98972.00
2018-09-04T21:51:00.892Z,98981.00
2018-09-04T21:53:31.107Z,98979.00
2018-09-04T21:56:01.546Z,98984.00
2018-09-04T21:58:32.729Z,98980.00
2018-09-04T22:01:04.041Z,98978.00
2018-09-04T22:03:35.213Z,98973.00
2018-09-04T22:06:06.688Z,98970.00
2018-09-04T22:08:37.667Z,98978.00
2018-09-04T22:11:08.136Z,98982.00
2018-09-04T22:13:38.254Z,98981.00
2018-09-04T22:16:09.563Z,98980.00
2018-09-04T22:18:40.133Z,98978.00
2018-09-04T22:21:11.438Z,98986.00
2018-09-04T22:23:42.899Z,98982.00
2018-09-04T22:26:13.138Z,98975.00
2018-09-04T22:28:43.755Z,98977.00
2018-09-04T22:31:15.652Z,98981.00
2018-09-04T22:33:47.265Z,98982.00
2018-09-04T22:36:18.278Z,98987.00
2018-09-04T22:38:49.379Z,98986.00
2018-09-04T22:41:20.597Z,98980.00
2018-09-04T22:43:51.400Z,98980.00
2018-09-04T22:46:22.028Z,98978.00
2018-09-04T22:48:53.437Z,98976.00
2018-09-04T22:51:30.024Z,98978.00
2018-09-04T22:54:01.733Z,98985.00
2018-09-04T22:56:33.944Z,98984.00
2018-09-04T22:59:05.429Z,98977.00
2018-09-04T23:01:36.399Z,98973.00
2018-09-04T23:04:07.952Z,98968.00
2018-09-04T23:06:39.342Z,98964.00
2018-09-04T23:09:10.667Z,98961.00
2018-09-04T23:11:42.004Z,98963.00
2018-09-04T23:14:12.591Z,98965.00
2018-09-04T23:16:43.560Z,98963.00
2018-09-04T23:19:14.859Z,98965.00
2018-09-04T23:21:46.620Z,98963.00
2018-09-04T23:24:17.858Z,98961.00
2018-09-04T23:26:48.659Z,98956.00
2018-09-04T23:29:19.805Z,98962.00
2018-09-04T23:31:50.705Z,98970.00
2018-09-04T23:34:22.198Z,98973.00
2018-09-04T23:36:53.687Z,98980.00
2018-09-04T23:39:24.979Z,98971.00
2018-09-04T23:41:55.867Z,98961.00
2018-09-04T23:44:27.420Z,98958.00
2018-09-04T23:46:58.992Z,98960.00
2018-09-04T23:49:30.197Z,98966.00
2018-09-04T23:52:01.569Z,98970.00
2018-09-04T23:54:32.604Z,98965.00
2018-09-04T23:57:03.731Z,98962.00
2018-09-04T23:59:35.328Z,98961.00
